createdAt,value
2018-08-09T00:01:09.000Z,36
2018-08-09T00:02:09.000Z,36
2018-08-09T00:03:09.000Z,36
2018-08-09T00:04:09.000Z,36
2018-08-09T00:06:09.000Z,36
2018-08-09T00:07:09.000Z,36
2018-08-09T00:08:09.000Z,36
2018-08-09T00:09:09.000Z,37
2018-08-09T00:11:09.000Z,36
2018-08-09T00:12:09.000Z,37
2018-08-09T00:13:09.000Z,37
2018-08-09T00:14:09.000Z,37
2018-08-09T00:15:09.000Z,37
2018-08-09T00:17:09.000Z,37
2018-08-09T00:18:09.000Z,37
2018-08-09T00:19:09.000Z,37
2018-08-09T00:20:09.000Z,37
2018-08-09T00:21:09.000Z,37
2018-08-09T00:23:09.000Z,37
2018-08-09T00:24:09.000Z,37
2018-08-09T00:25:09.000Z,37
2018-08-09T00:26:09.000Z,37
2018-08-09T00:27:09.000Z,37
2018-08-09T00:28:09.000Z,37
2018-08-09T00:29:09.000Z,37
2018-08-09T00:30:09.000Z,37
2018-08-09T00:31:09.000Z,37
2018-08-09T00:33:09.000Z,37
2018-08-09T00:34:09.000Z,37
2018-08-09T00:35:09.000Z,37
2018-08-09T00:36:09.000Z,37
2018-08-09T00:37:09.000Z,37
2018-08-09T00:38:09.000Z,37
2018-08-09T00:40:09.000Z,37
2018-08-09T00:41:09.000Z,37
2018-08-09T00:42:09.000Z,37
2018-08-09T00:43:09.000Z,37
2018-08-09T00:44:09.000Z,37
2018-08-09T00:45:09.000Z,37
2018-08-09T00:47:09.000Z,36
2018-08-09T00:48:09.000Z,37
2018-08-09T00:49:09.000Z,37
2018-08-09T00:50:09.000Z,37
2018-08-09T00:51:09.000Z,37
2018-08-09T00:53:09.000Z,37
2018-08-09T00:54:09.000Z,37
2018-08-09T00:55:09.000Z,37
2018-08-09T00:56:09.000Z,37
2018-08-09T00:57:09.000Z,37
2018-08-09T00:58:09.000Z,37
2018-08-09T00:59:09.000Z,37
2018-08-09T01:00:09.000Z,37
2018-08-09T01:01:09.000Z,37
2018-08-09T01:02:09.000Z,37
2018-08-09T01:03:09.000Z,37
2018-08-09T01:04:09.000Z,37
2018-08-09T01:05:09.000Z,37
2018-08-09T01:06:09.000Z,37
2018-08-09T01:07:09.000Z,37
2018-08-09T01:09:09.000Z,37
2018-08-09T01:10:09.000Z,37
2018-08-09T01:11:09.000Z,37
2018-08-09T01:12:09.000Z,37
2018-08-09T01:14:09.000Z,37
2018-08-09T01:16:09.000Z,37
2018-08-09T01:18:09.000Z,37
2018-08-09T01:19:09.000Z,37
2018-08-09T01:20:09.000Z,37
2018-08-09T01:21:09.000Z,37
2018-08-09T01:22:09.000Z,37
2018-08-09T01:23:09.000Z,37
2018-08-09T01:25:09.000Z,37
2018-08-09T01:26:09.000Z,37
2018-08-09T01:27:09.000Z,37
2018-08-09T01:28:09.000Z,37
2018-08-09T01:29:09.000Z,37
2018-08-09T01:30:09.000Z,37
2018-08-09T01:31:09.000Z,37
2018-08-09T01:33:09.000Z,37
2018-08-09T01:34:09.000Z,37
2018-08-09T01:35:09.000Z,37
2018-08-09T01:36:09.000Z,37
2018-08-09T01:37:09.000Z,37
2018-08-09T01:39:09.000Z,37
2018-08-09T01:40:09.000Z,37
2018-08-09T01:41:09.000Z,37
2018-08-09T01:42:09.000Z,37
2018-08-09T01:44:09.000Z,37
2018-08-09T01:45:09.000Z,37
2018-08-09T01:46:09.000Z,37
2018-08-09T01:47:09.000Z,37
2018-08-09T01:48:09.000Z,37
2018-08-09T01:49:09.000Z,37
2018-08-09T01:51:09.000Z,37
2018-08-09T01:52:09.000Z,37
2018-08-09T01:54:09.000Z,37
2018-08-09T01:55:09.000Z,37
2018-08-09T01:56:09.000Z,37
2018-08-09T01:58:09.000Z,37
2018-08-09T01:59:09.000Z,38
2018-08-09T02:00:09.000Z,37
2018-08-09T02:01:09.000Z,38
2018-08-09T02:02:09.000Z,38
2018-08-09T02:03:09.000Z,37
2018-08-09T02:04:09.000Z,38
2018-08-09T02:05:09.000Z,38
2018-08-09T02:06:08.000Z,38
2018-08-09T02:07:08.000Z,38
2018-08-09T02:08:08.000Z,37
2018-08-09T02:09:08.000Z,37
2018-08-09T02:10:08.000Z,37
2018-08-09T02:11:08.000Z,37
2018-08-09T02:12:08.000Z,38
2018-08-09T02:13:08.000Z,37
2018-08-09T02:14:08.000Z,38
2018-08-09T02:15:08.000Z,37
2018-08-09T02:16:08.000Z,38
2018-08-09T02:17:08.000Z,37
2018-08-09T02:18:08.000Z,38
2018-08-09T02:19:08.000Z,37
2018-08-09T02:20:08.000Z,38
2018-08-09T02:22:08.000Z,37
2018-08-09T02:23:08.000Z,38
2018-08-09T02:24:08.000Z,38
2018-08-09T02:25:08.000Z,38
2018-08-09T02:26:08.000Z,38
2018-08-09T02:27:08.000Z,38
2018-08-09T02:28:08.000Z,38
2018-08-09T02:29:08.000Z,38
2018-08-09T02:30:08.000Z,38
2018-08-09T02:31:08.000Z,38
2018-08-09T02:32:08.000Z,38
2018-08-09T02:33:08.000Z,38
2018-08-09T02:34:08.000Z,38
2018-08-09T02:35:08.000Z,38
2018-08-09T02:36:08.000Z,38
2018-08-09T02:37:08.000Z,38
2018-08-09T02:38:08.000Z,38
2018-08-09T02:40:08.000Z,38
2018-08-09T02:41:08.000Z,38
2018-08-09T02:42:08.000Z,38
2018-08-09T02:43:08.000Z,38
2018-08-09T02:44:08.000Z,38
2018-08-09T02:45:08.000Z,38
2018-08-09T02:46:08.000Z,38
2018-08-09T02:47:08.000Z,38
2018-08-09T02:48:08.000Z,38
2018-08-09T02:50:08.000Z,38
2018-08-09T02:51:08.000Z,38
2018-08-09T02:52:08.000Z,38
2018-08-09T02:54:08.000Z,38
2018-08-09T02:55:08.000Z,38
2018-08-09T02:56:08.000Z,38
2018-08-09T02:57:08.000Z,38
2018-08-09T02:58:08.000Z,38
2018-08-09T02:59:08.000Z,38
2018-08-09T03:00:08.000Z,38
2018-08-09T03:02:08.000Z,38
2018-08-09T03:03:08.000Z,38
2018-08-09T03:04:08.000Z,38
2018-08-09T03:05:08.000Z,38
2018-08-09T03:06:08.000Z,38
2018-08-09T03:07:08.000Z,38
2018-08-09T03:08:08.000Z,38
2018-08-09T03:09:08.000Z,38
2018-08-09T03:10:09.000Z,38
2018-08-09T03:11:09.000Z,38
2018-08-09T03:12:09.000Z,38
2018-08-09T03:14:09.000Z,38
2018-08-09T03:15:09.000Z,38
2018-08-09T03:17:09.000Z,38
2018-08-09T03:18:09.000Z,38
2018-08-09T03:19:09.000Z,38
2018-08-09T03:20:09.000Z,38
2018-08-09T03:21:09.000Z,38
2018-08-09T03:22:09.000Z,38
2018-08-09T03:23:09.000Z,38
2018-08-09T03:24:09.000Z,38
2018-08-09T03:25:09.000Z,38
2018-08-09T03:26:09.000Z,38
2018-08-09T03:27:09.000Z,38
2018-08-09T03:29:09.000Z,38
2018-08-09T03:30:09.000Z,38
2018-08-09T03:31:09.000Z,38
2018-08-09T03:32:09.000Z,38
2018-08-09T03:34:09.000Z,38
2018-08-09T03:35:09.000Z,38
2018-08-09T03:36:09.000Z,38
2018-08-09T03:37:09.000Z,38
2018-08-09T03:38:09.000Z,38
2018-08-09T03:39:09.000Z,38
2018-08-09T03:40:09.000Z,38
2018-08-09T03:41:09.000Z,38
2018-08-09T03:43:09.000Z,38
2018-08-09T03:44:09.000Z,38
2018-08-09T03:45:09.000Z,38
2018-08-09T03:47:09.000Z,38
2018-08-09T03:48:09.000Z,38
2018-08-09T03:49:09.000Z,38
2018-08-09T03:50:09.000Z,38
2018-08-09T03:51:09.000Z,38
2018-08-09T03:53:09.000Z,38
2018-08-09T03:55:09.000Z,38
2018-08-09T03:56:09.000Z,38
2018-08-09T03:57:09.000Z,38
2018-08-09T03:58:09.000Z,38
2018-08-09T03:59:09.000Z,38
2018-08-09T04:00:09.000Z,38
2018-08-09T04:01:09.000Z,38
2018-08-09T04:02:09.000Z,38
2018-08-09T04:03:09.000Z,38
2018-08-09T04:05:09.000Z,38
2018-08-09T04:06:09.000Z,38
2018-08-09T04:07:09.000Z,38
2018-08-09T04:08:09.000Z,38
2018-08-09T04:09:09.000Z,38
2018-08-09T04:10:09.000Z,38
2018-08-09T04:11:09.000Z,38
2018-08-09T04:12:09.000Z,38
2018-08-09T04:14:09.000Z,38
2018-08-09T04:15:09.000Z,38
2018-08-09T04:16:09.000Z,38
2018-08-09T04:18:09.000Z,38
2018-08-09T04:19:09.000Z,38
2018-08-09T04:20:09.000Z,38
2018-08-09T04:21:09.000Z,38
2018-08-09T04:22:09.000Z,38
2018-08-09T04:23:09.000Z,38
2018-08-09T04:25:09.000Z,38
2018-08-09T04:26:09.000Z,38
2018-08-09T04:27:09.000Z,38
2018-08-09T04:28:09.000Z,38
2018-08-09T04:29:09.000Z,38
2018-08-09T04:30:09.000Z,38
2018-08-09T04:31:09.000Z,38
2018-08-09T04:32:09.000Z,38
2018-08-09T04:33:09.000Z,38
2018-08-09T04:34:09.000Z,38
2018-08-09T04:35:09.000Z,38
2018-08-09T04:36:09.000Z,38
2018-08-09T04:37:09.000Z,38
2018-08-09T04:39:09.000Z,38
2018-08-09T04:40:09.000Z,39
2018-08-09T04:41:09.000Z,39
2018-08-09T04:43:09.000Z,39
2018-08-09T04:44:09.000Z,39
2018-08-09T04:45:09.000Z,39
2018-08-09T04:46:09.000Z,39
2018-08-09T04:47:09.000Z,39
2018-08-09T04:48:09.000Z,39
2018-08-09T04:49:09.000Z,38
2018-08-09T04:50:09.000Z,38
2018-08-09T04:51:09.000Z,38
2018-08-09T04:52:09.000Z,38
2018-08-09T04:53:09.000Z,38
2018-08-09T04:54:09.000Z,38
2018-08-09T04:55:09.000Z,38
2018-08-09T04:57:09.000Z,38
2018-08-09T04:58:09.000Z,38
2018-08-09T04:59:09.000Z,38
2018-08-09T05:00:09.000Z,38
2018-08-09T05:01:09.000Z,37
2018-08-09T05:02:09.000Z,38
2018-08-09T05:03:09.000Z,38
2018-08-09T05:04:09.000Z,37
2018-08-09T05:05:09.000Z,38
2018-08-09T05:06:09.000Z,38
2018-08-09T05:07:09.000Z,38
2018-08-09T05:08:09.000Z,38
2018-08-09T05:09:09.000Z,38
2018-08-09T05:10:09.000Z,38
2018-08-09T05:11:09.000Z,38
2018-08-09T05:12:09.000Z,38
2018-08-09T05:13:09.000Z,38
2018-08-09T05:14:09.000Z,38
2018-08-09T05:15:09.000Z,38
2018-08-09T05:16:09.000Z,38
2018-08-09T05:17:09.000Z,38
2018-08-09T05:18:09.000Z,38
2018-08-09T05:19:09.000Z,38
2018-08-09T05:20:09.000Z,38
2018-08-09T05:22:09.000Z,38
2018-08-09T05:23:09.000Z,38
2018-08-09T05:24:09.000Z,38
2018-08-09T05:25:09.000Z,38
2018-08-09T05:26:09.000Z,38
2018-08-09T05:27:09.000Z,38
2018-08-09T05:28:09.000Z,38
2018-08-09T05:29:09.000Z,37
2018-08-09T05:30:09.000Z,38
2018-08-09T05:31:09.000Z,38
2018-08-09T05:32:09.000Z,37
2018-08-09T05:33:09.000Z,37
2018-08-09T05:34:09.000Z,37
2018-08-09T05:35:09.000Z,37
2018-08-09T05:36:09.000Z,37
2018-08-09T05:38:09.000Z,37
2018-08-09T05:39:09.000Z,37
2018-08-09T05:40:09.000Z,37
2018-08-09T05:41:09.000Z,37
2018-08-09T05:42:09.000Z,37
2018-08-09T05:44:09.000Z,37
2018-08-09T05:45:09.000Z,37
2018-08-09T05:46:09.000Z,37
2018-08-09T05:47:09.000Z,37
2018-08-09T05:48:09.000Z,37
2018-08-09T05:49:09.000Z,37
2018-08-09T05:50:09.000Z,37
2018-08-09T05:51:09.000Z,37
2018-08-09T05:52:09.000Z,37
2018-08-09T05:54:09.000Z,37
2018-08-09T05:55:09.000Z,37
2018-08-09T05:56:09.000Z,37
2018-08-09T05:57:09.000Z,37
2018-08-09T05:58:09.000Z,37
2018-08-09T06:00:09.000Z,37
2018-08-09T06:01:09.000Z,37
2018-08-09T06:02:09.000Z,37
2018-08-09T06:03:09.000Z,37
2018-08-09T06:04:09.000Z,37
2018-08-09T06:05:09.000Z,37
2018-08-09T06:06:09.000Z,37
2018-08-09T06:07:09.000Z,37
2018-08-09T06:08:09.000Z,37
2018-08-09T06:09:09.000Z,37
2018-08-09T06:11:09.000Z,37
2018-08-09T06:12:09.000Z,37
2018-08-09T06:13:09.000Z,37
2018-08-09T06:14:09.000Z,37
2018-08-09T06:15:09.000Z,37
2018-08-09T06:17:09.000Z,37
2018-08-09T06:18:09.000Z,37
2018-08-09T06:19:09.000Z,37
2018-08-09T06:20:09.000Z,37
2018-08-09T06:21:09.000Z,37
2018-08-09T06:22:09.000Z,36
2018-08-09T06:23:09.000Z,36
2018-08-09T06:24:09.000Z,36
2018-08-09T06:26:09.000Z,36
2018-08-09T06:27:09.000Z,36
2018-08-09T06:28:09.000Z,36
2018-08-09T06:29:09.000Z,36
2018-08-09T06:30:09.000Z,36
2018-08-09T06:31:09.000Z,36
2018-08-09T06:32:09.000Z,36
2018-08-09T06:33:09.000Z,35
2018-08-09T06:34:09.000Z,35
2018-08-09T06:35:09.000Z,35
2018-08-09T06:37:09.000Z,35
2018-08-09T06:38:09.000Z,35
2018-08-09T06:39:09.000Z,35
2018-08-09T06:40:09.000Z,35
2018-08-09T06:41:09.000Z,35
2018-08-09T06:43:09.000Z,35
2018-08-09T06:44:09.000Z,35
2018-08-09T06:45:09.000Z,35
2018-08-09T06:46:09.000Z,35
2018-08-09T06:47:09.000Z,35
2018-08-09T06:48:09.000Z,35
2018-08-09T06:49:09.000Z,35
2018-08-09T06:50:09.000Z,34
2018-08-09T06:51:09.000Z,34
2018-08-09T06:52:09.000Z,34
2018-08-09T06:53:09.000Z,34
2018-08-09T06:54:09.000Z,34
2018-08-09T06:55:09.000Z,34
2018-08-09T06:56:09.000Z,34
2018-08-09T06:57:09.000Z,34
2018-08-09T06:58:09.000Z,34
2018-08-09T06:59:09.000Z,34
2018-08-09T07:00:09.000Z,34
2018-08-09T07:01:09.000Z,34
2018-08-09T07:02:09.000Z,34
2018-08-09T07:03:09.000Z,34
2018-08-09T07:04:09.000Z,34
2018-08-09T07:05:09.000Z,34
2018-08-09T07:06:09.000Z,34
2018-08-09T07:07:09.000Z,34
2018-08-09T07:09:09.000Z,34
2018-08-09T07:10:09.000Z,34
2018-08-09T07:11:09.000Z,34
2018-08-09T07:12:09.000Z,35
2018-08-09T07:13:09.000Z,35
2018-08-09T07:15:09.000Z,34
2018-08-09T07:16:09.000Z,34
2018-08-09T07:17:09.000Z,34
2018-08-09T07:18:09.000Z,34
2018-08-09T07:19:09.000Z,34
2018-08-09T07:20:09.000Z,34
2018-08-09T07:21:09.000Z,34
2018-08-09T07:22:09.000Z,34
2018-08-09T07:23:09.000Z,34
2018-08-09T07:24:09.000Z,34
2018-08-09T07:26:09.000Z,34
2018-08-09T07:27:09.000Z,34
2018-08-09T07:28:09.000Z,34
2018-08-09T07:29:09.000Z,34
2018-08-09T07:30:09.000Z,34
2018-08-09T07:31:09.000Z,35
2018-08-09T07:32:09.000Z,34
2018-08-09T07:33:09.000Z,35
2018-08-09T07:34:09.000Z,35
2018-08-09T07:35:09.000Z,34
2018-08-09T07:36:09.000Z,35
2018-08-09T07:38:09.000Z,35
2018-08-09T07:39:09.000Z,35
2018-08-09T07:40:09.000Z,35
2018-08-09T07:41:09.000Z,35
2018-08-09T07:42:09.000Z,35
2018-08-09T07:43:09.000Z,35
2018-08-09T07:44:09.000Z,35
2018-08-09T07:45:09.000Z,35
2018-08-09T07:46:09.000Z,35
2018-08-09T07:48:09.000Z,35
2018-08-09T07:49:09.000Z,35
2018-08-09T07:50:09.000Z,35
2018-08-09T07:51:09.000Z,35
2018-08-09T07:53:09.000Z,35
2018-08-09T07:54:09.000Z,35
2018-08-09T07:56:09.000Z,35
2018-08-09T07:58:09.000Z,35
2018-08-09T07:59:09.000Z,35
2018-08-09T08:00:09.000Z,35
2018-08-09T08:01:09.000Z,35
2018-08-09T08:02:09.000Z,35
2018-08-09T08:03:09.000Z,35
2018-08-09T08:04:09.000Z,35
2018-08-09T08:05:09.000Z,35
2018-08-09T08:06:09.000Z,35
2018-08-09T08:07:09.000Z,35
2018-08-09T08:09:09.000Z,34
2018-08-09T08:10:09.000Z,34
2018-08-09T08:11:09.000Z,34
2018-08-09T08:12:09.000Z,34
2018-08-09T08:13:09.000Z,34
2018-08-09T08:14:09.000Z,34
2018-08-09T08:15:09.000Z,34
2018-08-09T08:16:09.000Z,34
2018-08-09T08:17:09.000Z,34
2018-08-09T08:18:09.000Z,34
2018-08-09T08:19:09.000Z,34
2018-08-09T08:20:09.000Z,34
2018-08-09T08:22:09.000Z,34
2018-08-09T08:23:09.000Z,34
2018-08-09T08:24:09.000Z,34
2018-08-09T08:25:09.000Z,34
2018-08-09T08:27:09.000Z,34
2018-08-09T08:28:09.000Z,34
2018-08-09T08:30:09.000Z,34
2018-08-09T08:31:09.000Z,34
2018-08-09T08:32:09.000Z,34
2018-08-09T08:33:09.000Z,35
2018-08-09T08:34:09.000Z,35
2018-08-09T08:35:09.000Z,35
2018-08-09T08:36:09.000Z,35
2018-08-09T08:37:09.000Z,35
2018-08-09T08:38:09.000Z,35
2018-08-09T08:39:09.000Z,35
2018-08-09T08:40:09.000Z,35
2018-08-09T08:41:09.000Z,35
2018-08-09T08:42:09.000Z,35
2018-08-09T08:43:09.000Z,35
2018-08-09T08:44:09.000Z,35
2018-08-09T08:45:09.000Z,35
2018-08-09T08:46:09.000Z,35
2018-08-09T08:48:09.000Z,35
2018-08-09T08:49:09.000Z,35
2018-08-09T08:50:09.000Z,35
2018-08-09T08:51:09.000Z,36
2018-08-09T08:52:09.000Z,36
2018-08-09T08:53:09.000Z,36
2018-08-09T08:54:09.000Z,36
2018-08-09T08:55:09.000Z,36
2018-08-09T08:56:09.000Z,36
2018-08-09T08:57:09.000Z,36
2018-08-09T08:58:09.000Z,35
2018-08-09T08:59:09.000Z,36
2018-08-09T09:00:09.000Z,35
2018-08-09T09:01:09.000Z,36
2018-08-09T09:03:09.000Z,35
2018-08-09T09:04:09.000Z,36
2018-08-09T09:05:09.000Z,36
2018-08-09T09:06:09.000Z,36
2018-08-09T09:07:09.000Z,36
2018-08-09T09:08:09.000Z,36
2018-08-09T09:09:09.000Z,36
2018-08-09T09:10:09.000Z,36
2018-08-09T09:12:09.000Z,36
2018-08-09T09:13:09.000Z,36
2018-08-09T09:14:09.000Z,36
2018-08-09T09:15:09.000Z,36
2018-08-09T09:16:09.000Z,36
2018-08-09T09:17:09.000Z,36
2018-08-09T09:18:09.000Z,36
2018-08-09T09:20:09.000Z,36
2018-08-09T09:21:09.000Z,36
2018-08-09T09:22:09.000Z,36
2018-08-09T09:23:09.000Z,36
2018-08-09T09:24:09.000Z,36
2018-08-09T09:25:09.000Z,36
2018-08-09T09:26:09.000Z,36
2018-08-09T09:27:09.000Z,36
2018-08-09T09:28:09.000Z,36
2018-08-09T09:29:09.000Z,36
2018-08-09T09:30:09.000Z,36
2018-08-09T09:31:09.000Z,36
2018-08-09T09:32:09.000Z,36
2018-08-09T09:33:09.000Z,36
2018-08-09T09:34:09.000Z,36
2018-08-09T09:35:09.000Z,36
2018-08-09T09:36:09.000Z,36
2018-08-09T09:37:09.000Z,36
2018-08-09T09:38:09.000Z,36
2018-08-09T09:39:09.000Z,36
2018-08-09T09:40:09.000Z,36
2018-08-09T09:42:09.000Z,36
2018-08-09T09:44:09.000Z,36
2018-08-09T09:45:09.000Z,36
2018-08-09T09:46:09.000Z,36
2018-08-09T09:47:09.000Z,36
2018-08-09T09:48:09.000Z,36
2018-08-09T09:49:09.000Z,36
2018-08-09T09:50:09.000Z,36
2018-08-09T09:51:09.000Z,36
2018-08-09T09:52:09.000Z,36
2018-08-09T09:53:09.000Z,36
2018-08-09T09:54:09.000Z,36
2018-08-09T09:56:09.000Z,36
2018-08-09T09:57:09.000Z,36
2018-08-09T09:58:09.000Z,37
2018-08-09T10:00:09.000Z,36
2018-08-09T10:01:09.000Z,37
2018-08-09T10:03:09.000Z,36
2018-08-09T10:04:09.000Z,37
2018-08-09T10:05:09.000Z,37
2018-08-09T10:06:09.000Z,37
2018-08-09T10:07:09.000Z,37
2018-08-09T10:08:09.000Z,37
2018-08-09T10:09:09.000Z,37
2018-08-09T10:10:09.000Z,37
2018-08-09T10:11:09.000Z,36
2018-08-09T10:12:09.000Z,37
2018-08-09T10:13:09.000Z,36
2018-08-09T10:14:09.000Z,37
2018-08-09T10:16:09.000Z,36
2018-08-09T10:17:09.000Z,37
2018-08-09T10:18:09.000Z,37
2018-08-09T10:19:09.000Z,37
2018-08-09T10:20:09.000Z,37
2018-08-09T10:22:09.000Z,37
2018-08-09T10:23:09.000Z,37
2018-08-09T10:24:09.000Z,37
2018-08-09T10:25:09.000Z,37
2018-08-09T10:26:09.000Z,37
2018-08-09T10:27:09.000Z,37
2018-08-09T10:28:09.000Z,37
2018-08-09T10:29:09.000Z,37
2018-08-09T10:30:09.000Z,37
2018-08-09T10:31:09.000Z,37
2018-08-09T10:32:09.000Z,37
2018-08-09T10:33:09.000Z,37
2018-08-09T10:35:09.000Z,37
2018-08-09T10:36:09.000Z,37
2018-08-09T10:37:09.000Z,37
2018-08-09T10:38:09.000Z,37
2018-08-09T10:39:09.000Z,37
2018-08-09T10:40:09.000Z,37
2018-08-09T10:42:09.000Z,37
2018-08-09T10:43:09.000Z,37
2018-08-09T10:44:09.000Z,37
2018-08-09T10:45:09.000Z,37
2018-08-09T10:46:09.000Z,37
2018-08-09T10:47:09.000Z,37
2018-08-09T10:48:09.000Z,38
2018-08-09T10:49:09.000Z,38
2018-08-09T10:50:09.000Z,37
2018-08-09T10:51:09.000Z,37
2018-08-09T10:52:09.000Z,37
2018-08-09T10:53:09.000Z,38
2018-08-09T10:54:09.000Z,37
2018-08-09T10:55:09.000Z,38
2018-08-09T10:56:09.000Z,38
2018-08-09T10:57:09.000Z,38
2018-08-09T10:59:09.000Z,38
2018-08-09T11:00:09.000Z,38
2018-08-09T11:01:09.000Z,38
2018-08-09T11:02:09.000Z,38
2018-08-09T11:03:09.000Z,38
2018-08-09T11:04:09.000Z,38
2018-08-09T11:06:09.000Z,38
2018-08-09T11:07:09.000Z,38
2018-08-09T11:08:09.000Z,38
2018-08-09T11:09:09.000Z,37
2018-08-09T11:10:09.000Z,35
2018-08-09T11:11:09.000Z,34
2018-08-09T11:12:09.000Z,33
2018-08-09T11:14:09.000Z,31
2018-08-09T11:15:09.000Z,30
2018-08-09T11:16:09.000Z,29
2018-08-09T11:17:09.000Z,29
2018-08-09T11:19:09.000Z,28
2018-08-09T11:21:09.000Z,27
2018-08-09T11:22:09.000Z,26
2018-08-09T11:23:09.000Z,26
2018-08-09T11:24:09.000Z,26
2018-08-09T11:25:09.000Z,26
2018-08-09T11:26:09.000Z,27
2018-08-09T11:27:09.000Z,27
2018-08-09T11:28:09.000Z,28
2018-08-09T11:29:09.000Z,28
2018-08-09T11:30:09.000Z,29
2018-08-09T11:31:09.000Z,29
2018-08-09T11:32:09.000Z,30
2018-08-09T11:33:09.000Z,30
2018-08-09T11:35:09.000Z,30
2018-08-09T11:36:09.000Z,31
2018-08-09T11:37:09.000Z,31
2018-08-09T11:38:09.000Z,31
2018-08-09T11:39:09.000Z,31
2018-08-09T11:40:09.000Z,32
2018-08-09T11:41:09.000Z,32
2018-08-09T11:42:09.000Z,32
2018-08-09T11:43:09.000Z,32
2018-08-09T11:44:09.000Z,32
2018-08-09T11:45:09.000Z,32
2018-08-09T11:46:09.000Z,32
2018-08-09T11:47:09.000Z,33
2018-08-09T11:48:09.000Z,33
2018-08-09T11:49:09.000Z,33
2018-08-09T11:50:09.000Z,33
2018-08-09T11:51:09.000Z,33
2018-08-09T11:52:09.000Z,33
2018-08-09T11:53:09.000Z,33
2018-08-09T11:54:09.000Z,33
2018-08-09T11:55:09.000Z,34
2018-08-09T11:56:09.000Z,34
2018-08-09T11:57:09.000Z,34
2018-08-09T11:58:09.000Z,34
2018-08-09T11:59:09.000Z,34
2018-08-09T12:00:09.000Z,34
2018-08-09T12:01:09.000Z,35
2018-08-09T12:02:09.000Z,35
2018-08-09T12:03:09.000Z,35
2018-08-09T12:04:09.000Z,35
2018-08-09T12:05:09.000Z,35
2018-08-09T12:07:09.000Z,35
2018-08-09T12:08:09.000Z,36
2018-08-09T12:09:09.000Z,36
2018-08-09T12:10:09.000Z,36
2018-08-09T12:11:09.000Z,36
2018-08-09T12:12:09.000Z,36
2018-08-09T12:13:09.000Z,36
2018-08-09T12:14:09.000Z,36
2018-08-09T12:15:09.000Z,36
2018-08-09T12:16:09.000Z,36
2018-08-09T12:17:09.000Z,36
2018-08-09T12:18:09.000Z,37
2018-08-09T12:20:09.000Z,37
2018-08-09T12:21:09.000Z,37
2018-08-09T12:22:09.000Z,37
2018-08-09T12:23:09.000Z,37
2018-08-09T12:24:09.000Z,37
2018-08-09T12:25:09.000Z,37
2018-08-09T12:26:09.000Z,37
2018-08-09T12:28:09.000Z,37
2018-08-09T12:29:09.000Z,37
2018-08-09T12:30:09.000Z,37
2018-08-09T12:31:09.000Z,38
2018-08-09T12:32:09.000Z,38
2018-08-09T12:33:09.000Z,38
2018-08-09T12:34:09.000Z,38
2018-08-09T12:35:09.000Z,38
2018-08-09T12:36:09.000Z,38
2018-08-09T12:38:09.000Z,38
2018-08-09T12:39:09.000Z,38
2018-08-09T12:41:09.000Z,38
2018-08-09T12:42:09.000Z,38
2018-08-09T12:43:09.000Z,38
2018-08-09T12:44:09.000Z,38
2018-08-09T12:46:09.000Z,38
2018-08-09T12:47:09.000Z,38
2018-08-09T12:48:09.000Z,39
2018-08-09T12:49:09.000Z,38
2018-08-09T12:50:09.000Z,38
2018-08-09T12:51:09.000Z,38
2018-08-09T12:52:09.000Z,38
2018-08-09T12:53:09.000Z,38
2018-08-09T12:54:09.000Z,38
2018-08-09T12:55:09.000Z,38
2018-08-09T12:56:09.000Z,38
2018-08-09T12:57:09.000Z,38
2018-08-09T12:58:09.000Z,38
2018-08-09T12:59:09.000Z,38
2018-08-09T13:00:09.000Z,38
2018-08-09T13:01:09.000Z,38
2018-08-09T13:03:09.000Z,37
2018-08-09T13:04:09.000Z,38
2018-08-09T13:06:09.000Z,38
2018-08-09T13:07:09.000Z,38
2018-08-09T13:09:09.000Z,38
2018-08-09T13:10:09.000Z,38
2018-08-09T13:11:09.000Z,38
2018-08-09T13:12:09.000Z,38
2018-08-09T13:13:09.000Z,38
2018-08-09T13:14:09.000Z,38
2018-08-09T13:15:09.000Z,38
2018-08-09T13:16:09.000Z,38
2018-08-09T13:17:09.000Z,38
2018-08-09T13:18:09.000Z,38
2018-08-09T13:19:09.000Z,38
2018-08-09T13:20:09.000Z,38
2018-08-09T13:21:09.000Z,38
2018-08-09T13:22:09.000Z,38
2018-08-09T13:23:09.000Z,37
2018-08-09T13:24:09.000Z,37
2018-08-09T13:25:09.000Z,37
2018-08-09T13:26:09.000Z,37
2018-08-09T13:27:09.000Z,37
2018-08-09T13:28:09.000Z,37
2018-08-09T13:29:09.000Z,37
2018-08-09T13:30:09.000Z,37
2018-08-09T13:32:09.000Z,36
2018-08-09T13:33:09.000Z,36
2018-08-09T13:34:09.000Z,36
2018-08-09T13:35:09.000Z,36
2018-08-09T13:36:09.000Z,36
2018-08-09T13:37:09.000Z,36
2018-08-09T13:38:09.000Z,36
2018-08-09T13:39:09.000Z,36
2018-08-09T13:40:09.000Z,36
2018-08-09T13:41:09.000Z,36
2018-08-09T13:42:09.000Z,36
2018-08-09T13:43:09.000Z,36
2018-08-09T13:44:09.000Z,36
2018-08-09T13:46:10.000Z,36
2018-08-09T13:47:10.000Z,36
2018-08-09T13:48:10.000Z,37
2018-08-09T13:49:10.000Z,37
2018-08-09T13:50:10.000Z,37
2018-08-09T13:51:10.000Z,38
2018-08-09T13:52:10.000Z,38
2018-08-09T13:53:10.000Z,38
2018-08-09T13:55:10.000Z,38
2018-08-09T13:57:10.000Z,38
2018-08-09T13:59:10.000Z,39
2018-08-09T14:00:10.000Z,39
2018-08-09T14:02:10.000Z,39
2018-08-09T14:03:10.000Z,40
2018-08-09T14:04:10.000Z,40
2018-08-09T14:05:10.000Z,40
2018-08-09T14:06:10.000Z,40
2018-08-09T14:07:10.000Z,40
2018-08-09T14:08:10.000Z,40
2018-08-09T14:09:10.000Z,41
2018-08-09T14:10:10.000Z,41
2018-08-09T14:11:10.000Z,41
2018-08-09T14:12:10.000Z,41
2018-08-09T14:13:10.000Z,41
2018-08-09T14:14:10.000Z,41
2018-08-09T14:15:10.000Z,41
2018-08-09T14:16:10.000Z,42
2018-08-09T14:17:10.000Z,42
2018-08-09T14:19:10.000Z,42
2018-08-09T14:20:10.000Z,42
2018-08-09T14:21:10.000Z,42
2018-08-09T14:22:10.000Z,42
2018-08-09T14:23:10.000Z,42
2018-08-09T14:25:10.000Z,42
2018-08-09T14:26:10.000Z,43
2018-08-09T14:27:10.000Z,43
2018-08-09T14:28:10.000Z,43
2018-08-09T14:30:10.000Z,43
2018-08-09T14:31:10.000Z,43
2018-08-09T14:32:10.000Z,44
2018-08-09T14:33:10.000Z,43
2018-08-09T14:34:10.000Z,43
2018-08-09T14:35:10.000Z,43
2018-08-09T14:36:10.000Z,43
2018-08-09T14:37:10.000Z,43
2018-08-09T14:38:10.000Z,43
2018-08-09T14:39:10.000Z,43
2018-08-09T14:40:10.000Z,43
2018-08-09T14:41:10.000Z,43
2018-08-09T14:43:10.000Z,43
2018-08-09T14:44:10.000Z,43
2018-08-09T14:45:10.000Z,43
2018-08-09T14:46:10.000Z,43
2018-08-09T14:47:10.000Z,43
2018-08-09T14:48:10.000Z,43
2018-08-09T14:49:10.000Z,43
2018-08-09T14:50:09.000Z,44
2018-08-09T14:51:09.000Z,43
2018-08-09T14:52:09.000Z,43
2018-08-09T14:53:09.000Z,43
2018-08-09T14:54:09.000Z,43
2018-08-09T14:55:09.000Z,43
2018-08-09T14:56:09.000Z,43
2018-08-09T14:57:09.000Z,43
2018-08-09T14:58:09.000Z,44
2018-08-09T14:59:09.000Z,43
2018-08-09T15:01:09.000Z,43
2018-08-09T15:02:09.000Z,43
2018-08-09T15:03:09.000Z,43
2018-08-09T15:04:09.000Z,44
2018-08-09T15:05:09.000Z,44
2018-08-09T15:07:09.000Z,43
2018-08-09T15:08:09.000Z,44
2018-08-09T15:09:09.000Z,43
2018-08-09T15:10:09.000Z,43
2018-08-09T15:11:09.000Z,43
2018-08-09T15:12:09.000Z,43
2018-08-09T15:14:09.000Z,43
2018-08-09T15:15:09.000Z,43
2018-08-09T15:16:09.000Z,43
2018-08-09T15:17:09.000Z,43
2018-08-09T15:18:09.000Z,43
2018-08-09T15:19:09.000Z,43
2018-08-09T15:22:55.000Z,43
2018-08-09T15:23:55.000Z,43
2018-08-09T15:24:55.000Z,43
2018-08-09T15:26:55.000Z,43
2018-08-09T15:27:55.000Z,43
2018-08-09T15:28:55.000Z,43
2018-08-09T15:29:55.000Z,43
2018-08-09T15:30:55.000Z,43
2018-08-09T15:32:55.000Z,42
2018-08-09T15:33:55.000Z,42
2018-08-09T15:34:55.000Z,42
2018-08-09T15:35:55.000Z,42
2018-08-09T15:36:55.000Z,42
2018-08-09T15:37:55.000Z,42
2018-08-09T15:38:55.000Z,42
2018-08-09T15:39:55.000Z,42
2018-08-09T15:40:55.000Z,42
2018-08-09T15:41:55.000Z,42
2018-08-09T15:42:55.000Z,42
2018-08-09T15:44:55.000Z,42
2018-08-09T15:45:55.000Z,42
2018-08-09T15:46:55.000Z,42
2018-08-09T15:47:55.000Z,42
2018-08-09T15:48:55.000Z,42
2018-08-09T15:49:55.000Z,42
2018-08-09T15:50:55.000Z,42
2018-08-09T15:52:55.000Z,42
2018-08-09T15:53:55.000Z,42
2018-08-09T15:54:55.000Z,42
2018-08-09T15:55:55.000Z,42
2018-08-09T15:56:55.000Z,42
2018-08-09T15:57:55.000Z,42
2018-08-09T15:59:55.000Z,42
2018-08-09T16:00:55.000Z,42
2018-08-09T16:01:55.000Z,42
2018-08-09T16:02:55.000Z,42
2018-08-09T16:04:55.000Z,42
2018-08-09T16:05:55.000Z,42
2018-08-09T16:06:55.000Z,42